createdAt,value
2022-12-01T00:00:53.584Z,51.99
2022-12-01T00:01:53.662Z,49.66
2022-12-01T00:02:53.642Z,48.13
2022-12-01T00:03:53.575Z,48.55
2022-12-01T00:04:53.588Z,56.03
2022-12-01T00:05:53.515Z,50.63
2022-12-01T00:06:53.536Z,45.70
2022-12-01T00:07:53.583Z,54.70
2022-12-01T00:08:53.504Z,55.64
2022-12-01T00:09:53.508Z,52.86
2022-12-01T00:10:53.523Z,54.25
2022-12-01T00:11:53.485Z,46.86
2022-12-01T00:12:53.448Z,52.55
2022-12-01T00:13:53.501Z,49.15
2022-12-01T00:14:53.467Z,53.77
2022-12-01T00:15:53.441Z,51.01
2022-12-01T00:16:53.505Z,48.86
2022-12-01T00:17:53.436Z,50.44
2022-12-01T00:18:53.391Z,51.23
2022-12-01T00:19:53.406Z,49.27
2022-12-01T00:20:53.406Z,53.52
2022-12-01T00:21:53.391Z,54.49
2022-12-01T00:22:53.410Z,51.81
2022-12-01T00:23:53.365Z,49.73
2022-12-01T00:24:53.376Z,57.22
2022-12-01T00:25:53.382Z,56.02
2022-12-01T00:26:53.353Z,53.06
2022-12-01T00:27:53.296Z,50.14
2022-12-01T00:28:53.311Z,48.92
2022-12-01T00:29:53.372Z,54.27
2022-12-01T00:30:53.267Z,51.71
2022-12-01T00:31:53.369Z,57.62
2022-12-01T00:32:53.290Z,53.35
2022-12-01T00:33:53.271Z,55.62
2022-12-01T00:34:53.275Z,53.66
2022-12-01T00:35:53.271Z,54.83
2022-12-01T00:36:53.220Z,52.93
2022-12-01T00:37:53.204Z,51.77
2022-12-01T00:38:53.266Z,53.04
2022-12-01T00:39:53.236Z,49.08
2022-12-01T00:40:53.227Z,54.31
2022-12-01T00:41:53.195Z,51.14
2022-12-01T00:42:53.163Z,47.72
2022-12-01T00:43:53.169Z,43.72
2022-12-01T00:44:53.200Z,45.28
2022-12-01T00:45:53.180Z,47.50
2022-12-01T00:46:53.150Z,47.88
2022-12-01T00:47:53.101Z,49.12
2022-12-01T00:48:53.130Z,51.86
2022-12-01T00:49:53.125Z,44.46
2022-12-01T00:50:53.109Z,45.27
2022-12-01T00:51:53.095Z,51.93
2022-12-01T00:52:53.079Z,51.80
2022-12-01T00:53:53.078Z,51.28
2022-12-01T00:54:53.068Z,48.43
2022-12-01T00:55:53.060Z,47.28
2022-12-01T00:56:53.049Z,52.36
2022-12-01T00:57:53.052Z,51.54
2022-12-01T00:58:53.028Z,54.52
2022-12-01T00:59:53.030Z,47.38
2022-12-01T01:00:53.092Z,50.75
2022-12-01T01:01:53.000Z,52.21
2022-12-01T01:02:53.104Z,49.98
2022-12-01T01:03:52.992Z,46.64
2022-12-01T01:04:52.953Z,47.99
2022-12-01T01:05:53.004Z,43.89
2022-12-01T01:06:52.927Z,44.74
2022-12-01T01:07:52.938Z,50.23
2022-12-01T01:08:52.950Z,47.29
2022-12-01T01:09:52.921Z,56.97
2022-12-01T01:10:52.902Z,51.71
2022-12-01T01:11:52.912Z,49.89
2022-12-01T01:12:52.861Z,49.06
2022-12-01T01:13:52.895Z,47.99
2022-12-01T01:14:52.899Z,49.39
2022-12-01T01:15:52.849Z,47.94
2022-12-01T01:16:52.874Z,44.69
2022-12-01T01:17:52.839Z,48.68
2022-12-01T01:18:52.812Z,49.49
2022-12-01T01:19:52.829Z,43.77
2022-12-01T01:20:52.806Z,43.48
2022-12-01T01:21:52.772Z,48.36
2022-12-01T01:22:52.765Z,50.61
2022-12-01T01:23:52.822Z,50.74
2022-12-01T01:24:52.760Z,50.07
2022-12-01T01:25:52.756Z,52.07
2022-12-01T01:26:52.768Z,50.14
2022-12-01T01:27:52.708Z,54.14
2022-12-01T01:28:52.745Z,46.50
2022-12-01T01:29:52.713Z,47.72
2022-12-01T01:30:52.724Z,45.02
2022-12-01T01:31:52.672Z,46.84
2022-12-01T01:32:52.755Z,43.81
2022-12-01T01:33:52.671Z,44.04
2022-12-01T01:34:52.692Z,43.22
2022-12-01T01:35:52.671Z,48.03
2022-12-01T01:36:52.642Z,48.46
2022-12-01T01:37:52.580Z,54.50
2022-12-01T01:38:52.616Z,51.66
2022-12-01T01:39:52.605Z,46.09
2022-12-01T01:40:52.580Z,47.04
2022-12-01T01:41:52.588Z,44.00
2022-12-01T01:42:52.554Z,50.84
2022-12-01T01:43:52.569Z,50.04
2022-12-01T01:44:52.582Z,47.96
2022-12-01T01:45:52.573Z,50.05
2022-12-01T01:46:52.525Z,48.76
2022-12-01T01:47:52.509Z,50.75
2022-12-01T01:48:52.543Z,49.46
2022-12-01T01:49:52.485Z,45.60
2022-12-01T01:50:52.483Z,44.23
2022-12-01T01:51:52.456Z,50.67
2022-12-01T01:52:52.449Z,45.94
2022-12-01T01:53:52.458Z,51.41
2022-12-01T01:54:52.462Z,45.89
2022-12-01T01:55:52.421Z,43.05
2022-12-01T01:56:52.415Z,47.52
2022-12-01T01:57:52.432Z,47.58
2022-12-01T01:58:52.425Z,48.08
2022-12-01T01:59:52.421Z,50.59
2022-12-01T02:00:52.470Z,44.31
2022-12-01T02:01:52.367Z,43.69
2022-12-01T02:02:52.417Z,47.02
2022-12-01T02:03:52.369Z,49.66
2022-12-01T02:04:52.318Z,54.38
2022-12-01T02:05:52.315Z,47.26
2022-12-01T02:06:52.308Z,44.03
2022-12-01T02:07:52.398Z,53.43
2022-12-01T02:08:52.284Z,52.11
2022-12-01T02:09:52.289Z,53.13
2022-12-01T02:10:52.264Z,46.70
2022-12-01T02:11:52.278Z,45.49
2022-12-01T02:12:52.232Z,47.83
2022-12-01T02:13:52.275Z,50.81
2022-12-01T02:14:52.275Z,54.24
2022-12-01T02:15:52.199Z,52.58
2022-12-01T02:16:52.220Z,48.98
2022-12-01T02:17:52.253Z,54.42
2022-12-01T02:18:52.177Z,49.21
2022-12-01T02:19:52.165Z,45.37
2022-12-01T02:20:52.238Z,49.08
2022-12-01T02:21:52.165Z,54.10
2022-12-01T02:22:53.859Z,50.96
2022-12-01T02:23:53.158Z,45.41
2022-12-01T02:24:52.146Z,44.90
2022-12-01T02:25:52.111Z,47.47
2022-12-01T02:26:52.141Z,46.59
2022-12-01T02:27:52.097Z,53.93
2022-12-01T02:28:52.114Z,58.47
2022-12-01T02:29:52.080Z,48.52
2022-12-01T02:30:52.130Z,50.10
2022-12-01T02:31:52.032Z,46.52
2022-12-01T02:32:52.096Z,51.25
2022-12-01T02:33:52.059Z,49.49
2022-12-01T02:34:52.005Z,46.75
2022-12-01T02:35:52.007Z,45.98
2022-12-01T02:36:52.005Z,47.53
2022-12-01T02:37:52.008Z,48.97
2022-12-01T02:38:51.986Z,47.39
2022-12-01T02:39:51.982Z,46.07
2022-12-01T02:40:52.006Z,46.67
2022-12-01T02:41:51.932Z,48.17
2022-12-01T02:42:51.922Z,51.12
2022-12-01T02:43:51.937Z,48.46
2022-12-01T02:44:51.939Z,45.82
2022-12-01T02:45:51.889Z,48.39
2022-12-01T02:46:52.885Z,45.61
2022-12-01T02:47:51.931Z,49.77
2022-12-01T02:48:51.904Z,48.99
2022-12-01T02:49:52.130Z,48.96
2022-12-01T02:50:51.870Z,55.62
2022-12-01T02:51:51.845Z,46.69
2022-12-01T02:52:51.826Z,51.23
2022-12-01T02:53:51.802Z,51.94
2022-12-01T02:54:51.818Z,47.84
2022-12-01T02:55:51.816Z,46.01
2022-12-01T02:56:51.803Z,53.54
2022-12-01T02:57:51.808Z,49.17
2022-12-01T02:58:51.760Z,49.51
2022-12-01T02:59:52.737Z,46.26
2022-12-01T03:00:51.750Z,48.71
2022-12-01T03:01:51.809Z,51.70
2022-12-01T03:02:51.754Z,48.24
2022-12-01T03:03:51.736Z,45.81
2022-12-01T03:04:51.724Z,51.46
2022-12-01T03:05:51.701Z,50.43
2022-12-01T03:06:51.721Z,49.19
2022-12-01T03:07:51.772Z,52.22
2022-12-01T03:08:51.653Z,51.37
2022-12-01T03:09:51.912Z,47.29
2022-12-01T03:10:51.651Z,52.55
2022-12-01T03:11:51.622Z,46.99
2022-12-01T03:12:51.665Z,47.06
2022-12-01T03:13:51.634Z,56.66
2022-12-01T03:14:51.587Z,51.95
2022-12-01T03:15:51.621Z,47.93
2022-12-01T03:16:51.566Z,48.38
2022-12-01T03:17:51.587Z,51.53
2022-12-01T03:18:51.572Z,49.41
2022-12-01T03:19:51.726Z,54.42
2022-12-01T03:20:51.507Z,52.94
2022-12-01T03:21:51.549Z,52.73
2022-12-01T03:22:51.516Z,52.49
2022-12-01T03:23:51.498Z,52.72
2022-12-01T03:24:51.523Z,54.21
2022-12-01T03:25:51.488Z,52.31
2022-12-01T03:26:51.466Z,49.59
2022-12-01T03:28:19.635Z,53.16
2022-12-01T03:28:53.455Z,53.49
2022-12-01T03:29:51.580Z,53.03
2022-12-01T03:30:51.466Z,56.09
2022-12-01T03:31:51.447Z,52.98
2022-12-01T03:32:51.411Z,46.88
2022-12-01T03:33:51.367Z,49.83
2022-12-01T03:34:51.424Z,48.16
2022-12-01T03:35:51.379Z,56.20
2022-12-01T03:36:51.348Z,51.12
2022-12-01T03:37:51.377Z,49.57
2022-12-01T03:38:51.323Z,47.04
2022-12-01T03:39:53.747Z,49.76
2022-12-01T03:40:52.295Z,51.24
2022-12-01T03:41:51.320Z,50.74
2022-12-01T03:42:51.285Z,54.31
2022-12-01T03:43:51.294Z,52.01
2022-12-01T03:44:51.250Z,51.90
2022-12-01T03:45:51.306Z,49.61
2022-12-01T03:46:51.258Z,57.05
2022-12-01T03:48:23.131Z,53.60
2022-12-01T03:48:51.201Z,50.55
2022-12-01T03:49:51.535Z,47.95
2022-12-01T03:50:51.196Z,53.75
2022-12-01T03:51:51.182Z,57.36
2022-12-01T03:52:51.178Z,52.74
2022-12-01T03:53:51.179Z,51.18
2022-12-01T03:54:51.151Z,53.44
2022-12-01T03:55:51.129Z,54.75
2022-12-01T03:56:51.104Z,57.45
2022-12-01T03:57:51.106Z,51.32
2022-12-01T03:58:51.118Z,57.79
2022-12-01T03:59:51.418Z,56.02
2022-12-01T04:00:51.072Z,53.29
2022-12-01T04:01:51.098Z,53.16
2022-12-01T04:02:51.056Z,50.95
2022-12-01T04:03:51.037Z,50.80
2022-12-01T04:04:51.040Z,53.31
2022-12-01T04:05:51.011Z,52.19
2022-12-01T04:06:51.024Z,57.14
2022-12-01T04:07:51.062Z,55.62
2022-12-01T04:08:50.980Z,54.08
2022-12-01T04:09:51.300Z,56.02
2022-12-01T04:10:50.962Z,55.84
2022-12-01T04:11:50.956Z,51.07
2022-12-01T04:12:50.944Z,51.56
2022-12-01T04:13:50.927Z,54.54
2022-12-01T04:14:50.934Z,54.05
2022-12-01T04:15:50.962Z,52.86
2022-12-01T04:16:50.916Z,54.06
2022-12-01T04:17:50.894Z,53.09
2022-12-01T04:18:50.874Z,52.77
2022-12-01T04:19:51.183Z,52.74
2022-12-01T04:20:50.853Z,54.44
2022-12-01T04:21:50.879Z,56.03
2022-12-01T04:22:50.850Z,55.31
2022-12-01T04:23:50.819Z,54.39
2022-12-01T04:24:50.809Z,54.73
2022-12-01T04:25:50.809Z,55.63
2022-12-01T04:26:50.800Z,57.81
2022-12-01T04:27:50.776Z,57.56
2022-12-01T04:28:50.789Z,58.11
2022-12-01T04:29:51.029Z,59.55
2022-12-01T04:30:50.759Z,52.72
2022-12-01T04:31:50.841Z,55.07
2022-12-01T04:32:50.739Z,58.52
2022-12-01T04:33:50.727Z,60.73
2022-12-01T04:34:50.718Z,54.61
2022-12-01T04:35:50.700Z,56.53
2022-12-01T04:36:50.689Z,58.14
2022-12-01T04:37:50.666Z,56.58
2022-12-01T04:38:50.665Z,55.47
2022-12-01T04:39:50.945Z,57.38
2022-12-01T04:40:50.641Z,56.42
2022-12-01T04:41:50.658Z,55.98
2022-12-01T04:42:50.617Z,59.58
2022-12-01T04:43:50.614Z,58.98
2022-12-01T04:44:50.609Z,58.60
2022-12-01T04:45:50.590Z,58.43
2022-12-01T04:46:50.680Z,59.75
2022-12-01T04:47:50.574Z,57.00
2022-12-01T04:48:50.561Z,56.21
2022-12-01T04:49:50.780Z,56.12
2022-12-01T04:50:50.530Z,60.29
2022-12-01T04:51:50.539Z,58.02
2022-12-01T04:52:50.533Z,58.83
2022-12-01T04:53:50.511Z,56.51
2022-12-01T04:54:50.511Z,61.31
2022-12-01T04:55:50.492Z,57.87
2022-12-01T04:56:50.485Z,60.27
2022-12-01T04:57:50.465Z,60.09
2022-12-01T04:58:50.452Z,57.92
2022-12-01T04:59:50.768Z,59.54
2022-12-01T05:00:50.485Z,60.08
2022-12-01T05:01:50.535Z,57.74
2022-12-01T05:02:50.422Z,61.93
2022-12-01T05:03:50.411Z,57.54
2022-12-01T05:04:50.412Z,57.66
2022-12-01T05:05:50.434Z,57.32
2022-12-01T05:06:50.389Z,58.94
2022-12-01T05:07:50.427Z,57.61
2022-12-01T05:08:50.353Z,63.18
2022-12-01T05:09:50.731Z,61.76
2022-12-01T05:10:50.338Z,59.02
2022-12-01T05:11:50.316Z,60.47
2022-12-01T05:12:51.335Z,60.83
2022-12-01T05:13:50.293Z,58.61
2022-12-01T05:14:50.296Z,57.22
2022-12-01T05:15:50.334Z,57.10
2022-12-01T05:16:50.323Z,55.27
2022-12-01T05:17:50.272Z,58.34
2022-12-01T05:18:50.304Z,59.47
2022-12-01T05:19:50.566Z,57.03
2022-12-01T05:20:50.223Z,57.46
2022-12-01T05:21:50.237Z,60.01
2022-12-01T05:23:05.183Z,59.49
2022-12-01T05:23:52.192Z,57.52
2022-12-01T05:24:50.194Z,57.91
2022-12-01T05:25:50.205Z,60.27
2022-12-01T05:26:50.196Z,58.86
2022-12-01T05:27:50.189Z,57.97
2022-12-01T05:28:50.151Z,60.46
2022-12-01T05:29:50.385Z,58.19
2022-12-01T05:30:50.131Z,59.10
2022-12-01T05:31:50.222Z,61.16
2022-12-01T05:32:50.100Z,58.94
2022-12-01T05:33:50.103Z,60.82
2022-12-01T05:34:50.091Z,58.85
2022-12-01T05:35:50.078Z,61.41
2022-12-01T05:36:50.081Z,62.05
2022-12-01T05:37:50.070Z,61.21
2022-12-01T05:38:50.035Z,59.34
2022-12-01T05:39:50.399Z,59.96
2022-12-01T05:40:50.042Z,60.80
2022-12-01T05:41:49.995Z,59.01
2022-12-01T05:42:51.028Z,60.72
2022-12-01T05:43:50.000Z,60.96
2022-12-01T05:44:49.972Z,60.76
2022-12-01T05:45:50.016Z,61.04
2022-12-01T05:46:49.973Z,62.31
2022-12-01T05:47:49.959Z,61.58
2022-12-01T05:48:49.936Z,59.89
2022-12-01T05:49:50.319Z,61.17
2022-12-01T05:50:49.923Z,59.59
2022-12-01T05:51:49.913Z,63.56
2022-12-01T05:52:49.917Z,59.25
2022-12-01T05:53:49.887Z,62.66
2022-12-01T05:54:49.894Z,58.84
2022-12-01T05:55:49.885Z,58.09
2022-12-01T05:56:49.874Z,61.56
2022-12-01T05:57:49.851Z,61.79
2022-12-01T05:58:49.885Z,60.12
2022-12-01T05:59:50.003Z,61.16
2022-12-01T06:00:50.835Z,60.88
2022-12-01T06:01:49.851Z,61.55
2022-12-01T06:02:49.794Z,60.70
2022-12-01T06:03:49.907Z,59.74
2022-12-01T06:04:49.786Z,60.25
2022-12-01T06:05:49.784Z,59.19
2022-12-01T06:06:49.765Z,60.11
2022-12-01T06:07:49.832Z,59.79
2022-12-01T06:08:49.729Z,58.44
2022-12-01T06:09:49.969Z,60.54
2022-12-01T06:10:49.718Z,60.72
2022-12-01T06:11:52.504Z,60.18
2022-12-01T06:12:50.706Z,60.36
2022-12-01T06:13:49.691Z,61.03
2022-12-01T06:14:49.667Z,60.34
2022-12-01T06:15:49.663Z,59.37
2022-12-01T06:16:49.733Z,61.36
2022-12-01T06:17:49.644Z,60.55
2022-12-01T06:18:49.662Z,61.86
2022-12-01T06:19:49.860Z,60.22
2022-12-01T06:20:49.607Z,61.57
2022-12-01T06:21:49.611Z,62.83
2022-12-01T06:22:49.599Z,61.53
2022-12-01T06:23:49.570Z,62.79
2022-12-01T06:24:49.561Z,62.47
2022-12-01T06:25:49.587Z,57.06
2022-12-01T06:26:49.613Z,59.48
2022-12-01T06:27:49.531Z,58.93
2022-12-01T06:28:49.581Z,59.44
2022-12-01T06:29:49.894Z,61.61
2022-12-01T06:30:49.527Z,60.32
2022-12-01T06:31:49.611Z,61.04
2022-12-01T06:32:49.567Z,60.62
2022-12-01T06:33:49.491Z,62.08
2022-12-01T06:34:49.470Z,60.20
2022-12-01T06:35:49.481Z,61.65
2022-12-01T06:36:49.451Z,59.24
2022-12-01T06:37:49.429Z,61.07
2022-12-01T06:38:49.427Z,60.00
2022-12-01T06:39:49.708Z,60.38
2022-12-01T06:40:49.413Z,60.17
2022-12-01T06:41:49.405Z,61.87
2022-12-01T06:42:49.384Z,61.34
2022-12-01T06:43:49.393Z,59.16
2022-12-01T06:44:49.391Z,58.03
2022-12-01T06:45:49.398Z,63.10
2022-12-01T06:46:49.372Z,61.38
2022-12-01T06:47:49.344Z,60.47
2022-12-01T06:48:49.340Z,60.59
2022-12-01T06:49:49.618Z,61.18
2022-12-01T06:50:49.302Z,61.27
2022-12-01T06:51:49.295Z,60.40
2022-12-01T06:52:49.297Z,60.20
2022-12-01T06:53:49.268Z,60.73
2022-12-01T06:54:49.277Z,61.73
2022-12-01T06:55:49.267Z,60.87
2022-12-01T06:56:49.230Z,60.72
2022-12-01T06:57:49.240Z,61.16
2022-12-01T06:58:49.226Z,58.32
2022-12-01T06:59:49.531Z,60.78
2022-12-01T07:00:52.295Z,63.85
2022-12-01T07:01:50.230Z,60.21
2022-12-01T07:02:49.270Z,58.14
2022-12-01T07:03:49.161Z,59.71
2022-12-01T07:04:49.148Z,62.16
2022-12-01T07:05:49.162Z,58.47
2022-12-01T07:06:49.158Z,57.54
2022-12-01T07:07:49.174Z,59.22
2022-12-01T07:08:49.119Z,57.64
2022-12-01T07:09:50.414Z,60.57
2022-12-01T07:10:49.090Z,59.96
2022-12-01T07:11:49.155Z,59.68
2022-12-01T07:12:49.074Z,60.26
2022-12-01T07:13:49.071Z,59.94
2022-12-01T07:14:49.048Z,60.36
2022-12-01T07:15:49.226Z,59.46
2022-12-01T07:16:49.083Z,62.91
2022-12-01T07:17:49.021Z,64.94
2022-12-01T07:18:49.045Z,61.32
2022-12-01T07:19:49.506Z,61.03
2022-12-01T07:20:49.003Z,59.81
2022-12-01T07:21:49.004Z,60.04
2022-12-01T07:22:48.974Z,60.75
2022-12-01T07:23:48.960Z,60.11
2022-12-01T07:24:48.970Z,61.28
2022-12-01T07:25:48.957Z,62.94
2022-12-01T07:26:48.929Z,60.13
2022-12-01T07:27:48.920Z,59.59
2022-12-01T07:28:48.930Z,59.75
2022-12-01T07:29:49.057Z,61.33
2022-12-01T07:30:48.966Z,59.81
2022-12-01T07:31:48.882Z,60.38
2022-12-01T07:32:48.881Z,60.66
2022-12-01T07:33:48.863Z,62.41
2022-12-01T07:34:48.843Z,58.49
2022-12-01T07:35:48.867Z,61.09
2022-12-01T07:36:48.874Z,61.57
2022-12-01T07:37:48.812Z,59.46
2022-12-01T07:38:48.790Z,58.16
2022-12-01T07:39:49.019Z,60.48
2022-12-01T07:40:48.821Z,60.03
2022-12-01T07:41:48.809Z,58.49
2022-12-01T07:42:48.798Z,61.44
2022-12-01T07:43:48.774Z,58.85
2022-12-01T07:44:48.755Z,60.69
2022-12-01T07:45:48.765Z,56.32
2022-12-01T07:46:48.730Z,59.75
2022-12-01T07:47:48.705Z,61.19
2022-12-01T07:48:48.720Z,58.20
2022-12-01T07:49:48.912Z,59.57
2022-12-01T07:50:48.675Z,59.61
2022-12-01T07:51:48.683Z,60.23
2022-12-01T07:52:48.669Z,58.64
2022-12-01T07:53:48.655Z,57.38
2022-12-01T07:54:48.641Z,57.44
2022-12-01T07:55:48.629Z,56.66
2022-12-01T07:56:48.614Z,58.57
2022-12-01T07:57:48.621Z,56.14
2022-12-01T07:58:48.665Z,61.84
2022-12-01T07:59:48.753Z,60.07
2022-12-01T08:00:48.575Z,60.83
2022-12-01T08:01:48.602Z,55.38
2022-12-01T08:02:48.669Z,55.72
2022-12-01T08:03:48.617Z,58.23
2022-12-01T08:04:48.545Z,57.72
2022-12-01T08:05:48.533Z,58.35
2022-12-01T08:06:48.580Z,57.09
2022-12-01T08:07:48.578Z,59.02
2022-12-01T08:08:48.507Z,60.50
2022-12-01T08:09:48.791Z,56.79
2022-12-01T08:10:48.492Z,60.48
2022-12-01T08:11:48.467Z,55.63
2022-12-01T08:12:48.453Z,58.90
2022-12-01T08:13:48.456Z,59.89
2022-12-01T08:14:48.422Z,57.49
2022-12-01T08:15:48.457Z,58.71
2022-12-01T08:16:48.422Z,57.53
2022-12-01T08:17:48.393Z,58.22
2022-12-01T08:18:48.396Z,59.43
2022-12-01T08:19:48.657Z,57.86
2022-12-01T08:20:48.582Z,62.05
2022-12-01T08:21:48.349Z,62.76
2022-12-01T08:22:48.407Z,64.09
2022-12-01T08:23:48.343Z,57.60
2022-12-01T08:24:48.320Z,56.57
2022-12-01T08:25:48.398Z,58.32
2022-12-01T08:26:48.342Z,58.98
2022-12-01T08:27:48.308Z,57.98
2022-12-01T08:28:48.344Z,61.25
2022-12-01T08:29:48.588Z,60.44
2022-12-01T08:30:48.313Z,59.34
2022-12-01T08:31:48.276Z,58.67
2022-12-01T08:32:48.240Z,60.36
2022-12-01T08:33:48.224Z,59.44
2022-12-01T08:34:53.162Z,58.85
2022-12-01T08:35:50.301Z,59.58
2022-12-01T08:36:48.192Z,58.55
2022-12-01T08:37:48.191Z,58.91
2022-12-01T08:38:48.194Z,60.37
2022-12-01T08:39:48.573Z,60.75
2022-12-01T08:40:48.172Z,61.53
2022-12-01T08:41:48.170Z,60.40
2022-12-01T08:42:48.132Z,56.05
2022-12-01T08:43:57.921Z,60.02
2022-12-01T08:44:50.302Z,58.58
2022-12-01T08:45:48.116Z,59.54
2022-12-01T08:46:48.144Z,56.56
2022-12-01T08:47:48.223Z,58.58
2022-12-01T08:48:48.100Z,58.67
2022-12-01T08:49:48.782Z,56.12
2022-12-01T08:50:48.056Z,57.18
2022-12-01T08:51:48.053Z,60.04
2022-12-01T08:52:48.043Z,59.16
2022-12-01T08:53:48.008Z,57.03
2022-12-01T08:54:48.028Z,55.37
2022-12-01T08:55:48.027Z,63.24
2022-12-01T08:56:47.997Z,58.87
2022-12-01T08:57:48.007Z,57.58
2022-12-01T08:58:47.984Z,56.70
2022-12-01T08:59:48.195Z,58.91
2022-12-01T09:00:47.947Z,60.63
2022-12-01T09:01:47.995Z,57.90
2022-12-01T09:02:48.032Z,56.64
2022-12-01T09:03:47.907Z,54.70
2022-12-01T09:04:47.909Z,54.06
2022-12-01T09:05:47.898Z,60.78
2022-12-01T09:06:47.907Z,59.18
2022-12-01T09:07:47.922Z,59.13
2022-12-01T09:08:47.884Z,58.03
2022-12-01T09:09:48.195Z,57.15
2022-12-01T09:10:47.845Z,61.35
2022-12-01T09:11:47.859Z,58.84
2022-12-01T09:12:47.838Z,58.19
2022-12-01T09:13:54.306Z,59.86
2022-12-01T09:14:49.940Z,58.01
2022-12-01T09:15:47.863Z,57.08
2022-12-01T09:16:47.803Z,57.87
2022-12-01T09:17:47.800Z,59.00
2022-12-01T09:18:47.758Z,58.49
2022-12-01T09:19:48.360Z,61.59
2022-12-01T09:20:47.726Z,60.13
2022-12-01T09:21:47.735Z,58.63
2022-12-01T09:22:47.709Z,62.86
2022-12-01T09:23:47.719Z,60.18
2022-12-01T09:24:47.693Z,56.48
2022-12-01T09:25:47.707Z,60.81
2022-12-01T09:26:47.682Z,58.18
2022-12-01T09:27:47.664Z,57.84
2022-12-01T09:28:47.661Z,63.47
2022-12-01T09:29:48.016Z,67.62
2022-12-01T09:30:47.643Z,58.03
2022-12-01T09:31:47.723Z,58.61
2022-12-01T09:32:47.603Z,59.39
2022-12-01T09:33:47.605Z,62.01
2022-12-01T09:34:47.608Z,58.96
2022-12-01T09:35:47.590Z,57.34
2022-12-01T09:36:47.577Z,58.57
2022-12-01T09:37:47.595Z,60.70
2022-12-01T09:38:47.586Z,60.94
2022-12-01T09:39:47.972Z,57.70
2022-12-01T09:40:48.538Z,59.18
2022-12-01T09:41:47.521Z,58.97
2022-12-01T09:42:47.515Z,57.26
2022-12-01T09:43:47.504Z,57.85
2022-12-01T09:44:47.483Z,57.66
2022-12-01T09:45:47.530Z,56.54
2022-12-01T09:46:47.510Z,57.67
2022-12-01T09:47:47.484Z,58.72
2022-12-01T09:49:21.422Z,57.90
2022-12-01T09:49:48.049Z,56.22
2022-12-01T09:50:47.645Z,57.10
2022-12-01T09:51:47.566Z,61.24
2022-12-01T09:52:47.510Z,57.84
2022-12-01T09:53:47.436Z,60.73
2022-12-01T09:54:47.477Z,58.73
2022-12-01T09:55:47.422Z,58.80
2022-12-01T09:56:47.560Z,59.77
2022-12-01T09:57:47.385Z,57.59
2022-12-01T09:58:47.481Z,58.06
2022-12-01T09:59:47.746Z,58.90
2022-12-01T10:00:47.407Z,55.88
2022-12-01T10:01:47.439Z,56.39
2022-12-01T10:02:47.372Z,60.46
2022-12-01T10:03:47.325Z,58.27
2022-12-01T10:04:47.352Z,58.78
2022-12-01T10:06:18.534Z,57.62
2022-12-01T10:06:49.306Z,60.41
2022-12-01T10:07:47.382Z,56.62
2022-12-01T10:08:47.315Z,58.53
2022-12-01T10:09:47.610Z,57.73
2022-12-01T10:10:47.277Z,60.45
2022-12-01T10:11:47.287Z,63.81
2022-12-01T10:12:47.283Z,60.46
2022-12-01T10:13:47.215Z,57.82
2022-12-01T10:14:47.284Z,63.55
2022-12-01T10:15:47.217Z,60.71
2022-12-01T10:16:47.236Z,59.02
2022-12-01T10:17:47.179Z,59.07
2022-12-01T10:18:47.197Z,58.77
2022-12-01T10:19:47.436Z,58.59
2022-12-01T10:20:47.191Z,59.12
2022-12-01T10:21:47.416Z,57.49
2022-12-01T10:22:47.149Z,63.16
2022-12-01T10:23:47.087Z,62.37
2022-12-01T10:24:47.098Z,59.61
2022-12-01T10:25:47.071Z,56.28
2022-12-01T10:26:47.100Z,59.11
2022-12-01T10:27:47.140Z,61.98
2022-12-01T10:28:47.045Z,59.17
2022-12-01T10:29:47.850Z,59.32
2022-12-01T10:30:48.033Z,57.50
2022-12-01T10:31:47.137Z,58.95
2022-12-01T10:32:47.055Z,59.38
2022-12-01T10:33:47.222Z,59.23
2022-12-01T10:34:47.011Z,57.77
2022-12-01T10:35:47.021Z,57.21
2022-12-01T10:36:47.003Z,58.99
2022-12-01T10:37:47.052Z,61.03
2022-12-01T10:38:47.011Z,55.57
2022-12-01T10:39:47.316Z,58.89
2022-12-01T10:40:46.936Z,57.78
2022-12-01T10:41:46.967Z,58.66
2022-12-01T10:42:46.994Z,57.74
2022-12-01T10:43:46.916Z,58.08
2022-12-01T10:44:46.923Z,60.49
2022-12-01T10:45:46.929Z,55.42
2022-12-01T10:46:46.875Z,58.46
2022-12-01T10:47:46.944Z,59.47
2022-12-01T10:48:46.829Z,60.00
2022-12-01T10:49:47.033Z,59.18
2022-12-01T10:50:46.915Z,59.53
2022-12-01T10:51:46.823Z,58.68
2022-12-01T10:52:46.862Z,58.22
2022-12-01T10:53:46.900Z,58.88
2022-12-01T10:54:46.802Z,57.70
2022-12-01T10:55:48.164Z,61.74
2022-12-01T10:56:47.814Z,60.90
2022-12-01T10:57:46.795Z,57.21
2022-12-01T10:58:46.792Z,59.85
2022-12-01T10:59:48.084Z,58.17
2022-12-01T11:01:02.489Z,62.06
2022-12-01T11:01:48.879Z,58.17
2022-12-01T11:02:46.924Z,57.28
2022-12-01T11:03:46.829Z,58.69
2022-12-01T11:04:46.720Z,56.49
2022-12-01T11:05:46.689Z,60.10
2022-12-01T11:06:46.724Z,57.72
2022-12-01T11:07:46.739Z,56.49
2022-12-01T11:08:46.720Z,57.20
2022-12-01T11:09:46.881Z,59.93
2022-12-01T11:10:46.636Z,58.08
2022-12-01T11:11:46.728Z,60.57
2022-12-01T11:12:46.649Z,57.04
2022-12-01T11:13:46.603Z,56.51
2022-12-01T11:14:46.620Z,58.15
2022-12-01T11:15:46.612Z,59.17
2022-12-01T11:16:46.697Z,59.71
2022-12-01T11:17:46.575Z,57.61
2022-12-01T11:18:46.716Z,57.98
2022-12-01T11:19:46.720Z,56.09
2022-12-01T11:20:46.634Z,59.46
2022-12-01T11:21:46.567Z,57.56
2022-12-01T11:22:46.513Z,59.54
2022-12-01T11:23:46.527Z,58.94
2022-12-01T11:24:46.513Z,59.78
2022-12-01T11:25:46.576Z,58.27
2022-12-01T11:26:46.513Z,59.01
2022-12-01T11:27:46.461Z,60.21
2022-12-01T11:28:46.436Z,59.79
2022-12-01T11:29:46.596Z,58.16
2022-12-01T11:30:46.400Z,60.64
2022-12-01T11:31:46.461Z,61.17
2022-12-01T11:32:47.454Z,61.11
2022-12-01T11:33:46.393Z,60.84
2022-12-01T11:34:46.671Z,60.38
2022-12-01T11:35:46.416Z,62.46
2022-12-01T11:36:46.406Z,61.86
2022-12-01T11:37:54.876Z,61.13
2022-12-01T11:38:48.357Z,62.56
2022-12-01T11:39:46.362Z,61.13
2022-12-01T11:40:46.306Z,62.37
2022-12-01T11:41:46.355Z,60.57
2022-12-01T11:42:46.340Z,57.36
2022-12-01T11:44:52.161Z,61.60
2022-12-01T11:45:47.344Z,62.95
2022-12-01T11:46:55.529Z,60.88
2022-12-01T11:47:48.271Z,61.81
2022-12-01T11:48:46.266Z,60.10
2022-12-01T11:49:47.443Z,57.87
2022-12-01T11:50:47.242Z,61.91
2022-12-01T11:51:46.207Z,60.33
2022-12-01T11:52:46.271Z,60.02
2022-12-01T11:53:46.188Z,59.12
2022-12-01T11:54:46.215Z,59.32
2022-12-01T11:55:46.182Z,61.38
2022-12-01T11:56:46.711Z,61.17
2022-12-01T11:57:46.203Z,62.12
2022-12-01T11:58:46.200Z,62.26
2022-12-01T11:59:46.166Z,61.92
2022-12-01T12:00:46.161Z,60.05
2022-12-01T12:01:46.172Z,61.36
2022-12-01T12:02:46.144Z,62.21
2022-12-01T12:03:46.198Z,59.61
2022-12-01T12:04:46.141Z,60.01
2022-12-01T12:05:46.132Z,62.69
2022-12-01T12:06:46.083Z,60.04
2022-12-01T12:07:46.194Z,58.52
2022-12-01T12:08:46.153Z,61.56
2022-12-01T12:09:46.097Z,62.99
2022-12-01T12:10:46.079Z,59.26
2022-12-01T12:11:46.058Z,62.69
2022-12-01T12:12:46.010Z,63.32
2022-12-01T12:13:46.024Z,62.48
2022-12-01T12:14:46.021Z,64.26
2022-12-01T12:15:46.107Z,63.24
2022-12-01T12:16:45.962Z,63.19
2022-12-01T12:17:46.076Z,61.40
2022-12-01T12:18:45.963Z,62.88
2022-12-01T12:20:07.343Z,60.38
2022-12-01T12:20:47.958Z,61.44
2022-12-01T12:21:46.007Z,61.66
2022-12-01T12:22:48.608Z,62.21
2022-12-01T12:23:46.918Z,63.48
2022-12-01T12:24:45.926Z,64.82
2022-12-01T12:25:45.905Z,61.58
2022-12-01T12:26:45.868Z,61.52
2022-12-01T12:27:45.894Z,60.62
2022-12-01T12:28:45.832Z,63.01
2022-12-01T12:29:45.834Z,62.63
2022-12-01T12:30:45.998Z,61.02
2022-12-01T12:31:45.886Z,61.48
2022-12-01T12:32:45.915Z,62.25
2022-12-01T12:33:45.817Z,62.57
2022-12-01T12:34:45.829Z,60.30
2022-12-01T12:35:45.824Z,61.79
2022-12-01T12:36:45.805Z,62.03
2022-12-01T12:37:45.861Z,61.31
2022-12-01T12:38:45.840Z,64.48
2022-12-01T12:39:45.731Z,63.83
2022-12-01T12:40:45.810Z,60.46
2022-12-01T12:41:45.812Z,63.21
2022-12-01T12:42:45.759Z,61.68
2022-12-01T12:43:45.744Z,61.60
2022-12-01T12:44:45.729Z,61.84
2022-12-01T12:45:45.769Z,60.34
2022-12-01T12:46:45.729Z,62.56
2022-12-01T12:47:45.695Z,61.23
2022-12-01T12:49:11.705Z,63.51
2022-12-01T12:49:48.046Z,61.72
2022-12-01T12:50:45.708Z,62.19
2022-12-01T12:51:45.671Z,62.08
2022-12-01T12:52:45.596Z,61.64
2022-12-01T12:53:46.694Z,64.02